Terminal Aerodrome Forecast
Issued by NWS Jacksonville, FL

Home | Current Version | Previous Version | Text Only | Print | Product List | Glossary On
Versions: 1 2 3 4 5 6 7 8 9 10 11 12 13 14
487
FTUS42 KJAX 171740
TAFJAX
TAF
KJAX 171740Z 1718/1818 13006KT P6SM FEW070 BKN200
     FM180000 VRB03KT P6SM FEW035 BKN100
     FM180800 00000KT 4SM BR FEW010 SCT100
     FM181400 23005KT P6SM BKN035=

USA.gov is the U.S. government's official web portal to all federal, state and local government web resources and services.